Time;durP1;ratioP1;P1;durP2;ratioP2;P2;SDS_P1;SDS_P2;PMS_P1;PMS_P2;Temp;Humidity;BMP_temperature;BMP_pressure;BME280_temperature;BME280_humidity;BME280_pressure;Samples;Min_cycle;Max_cycle;Signal;HPM_P1;HPM_P2
2022/01/30 00:02:29;;;;;;;15.80;4.80;;;;;;;5.46;57.15;100463.66;6471669;27;34444;-78
2022/01/30 00:05:38;;;;;;;22.53;5.00;;;;;;;5.45;57.65;100460.19;6502486;26;35287;-78
2022/01/30 00:08:49;;;;;;;12.17;4.50;;;;;;;5.48;58.30;100469.72;6496591;26;34528;-79
2022/01/30 00:11:58;;;;;;;13.40;4.60;;;;;;;5.94;57.56;100472.41;6504821;27;34904;-79
2022/01/30 00:15:02;;;;;;;14.37;4.70;;;;;;;5.87;57.26;100458.59;6504600;27;35412;-77
2022/01/30 00:24:45;;;;;;;11.80;4.73;;;;;;;5.84;57.95;100423.87;6476036;27;32926;-77
2022/01/30 00:28:05;;;;;;;9.53;3.57;;;;;;;5.62;58.71;100415.59;6488279;27;34393;-79
2022/01/30 00:31:14;;;;;;;17.53;4.50;;;;;;;5.83;56.80;100394.31;6486329;27;44165;-78
2022/01/30 00:34:20;;;;;;;13.30;4.20;;;;;;;5.54;57.78;100394.00;6495321;27;34106;-78
2022/01/30 00:37:31;;;;;;;15.90;4.50;;;;;;;5.33;58.91;100388.28;6518494;27;33450;-79
2022/01/30 00:40:55;;;;;;;11.50;4.00;;;;;;;5.53;58.18;100380.09;6497908;27;34889;-76
2022/01/30 00:44:04;;;;;;;7.70;3.80;;;;;;;5.48;57.91;100362.84;6442149;27;32920;-79
2022/01/30 00:47:16;;;;;;;15.37;4.33;;;;;;;5.11;59.13;100361.75;6457272;27;42988;-78
2022/01/30 00:50:25;;;;;;;9.18;4.05;;;;;;;5.23;58.89;100355.47;6491359;27;33769;-75
2022/01/30 00:53:37;;;;;;;14.27;3.93;;;;;;;5.29;58.69;100347.53;6469762;27;34341;-76
2022/01/30 00:56:54;;;;;;;9.10;3.63;;;;;;;5.22;58.65;100340.72;6462328;27;36105;-78
2022/01/30 01:00:09;;;;;;;12.70;4.07;;;;;;;5.20;58.28;100333.81;6424567;27;34090;-76
2022/01/30 01:03:17;;;;;;;11.07;4.10;;;;;;;5.40;57.94;100334.28;6467197;27;34224;-78
2022/01/30 01:06:22;;;;;;;13.60;4.33;;;;;;;5.31;58.28;100331.87;6437952;27;35058;-78
2022/01/30 01:09:39;;;;;;;12.93;4.13;;;;;;;5.53;57.59;100321.87;6461791;27;43291;-76
2022/01/30 01:23:45;;;;;;;13.70;4.00;;;;;;;5.55;57.18;100326.19;6487371;27;44522;-79
2022/01/30 01:26:26;;;;;;;18.83;5.17;;;;;;;5.11;58.31;100314.84;6479353;27;33607;-75
2022/01/30 01:29:45;;;;;;;10.10;4.50;;;;;;;5.49;56.90;100299.41;6500434;26;33378;-78
2022/01/30 01:33:08;;;;;;;14.13;4.30;;;;;;;5.18;57.04;100297.38;6427074;27;34720;-77
2022/01/30 01:36:18;;;;;;;9.30;4.07;;;;;;;5.66;55.70;100292.94;6414186;27;34411;-76
2022/01/30 01:39:27;;;;;;;8.63;3.70;;;;;;;5.41;56.35;100283.91;6441603;27;33496;-75
2022/01/30 01:42:35;;;;;;;10.40;3.90;;;;;;;5.27;56.83;100286.75;6435913;27;33269;-75
2022/01/30 01:45:41;;;;;;;11.90;3.53;;;;;;;4.83;58.53;100271.94;6406320;27;44501;-77
2022/01/30 01:48:53;;;;;;;9.97;4.00;;;;;;;5.30;56.83;100262.41;6439212;27;33583;-78
2022/01/30 01:52:22;;;;;;;10.20;3.73;;;;;;;5.46;56.29;100252.53;6405889;27;43389;-77
2022/01/30 01:55:32;;;;;;;15.67;4.90;;;;;;;5.54;56.16;100250.59;6423176;27;35290;-76
2022/01/30 01:58:41;;;;;;;13.07;4.33;;;;;;;5.22;56.73;100231.28;6435561;27;44494;-79
2022/01/30 02:01:53;;;;;;;9.47;3.50;;;;;;;5.17;57.24;100238.34;6447253;27;33304;-78
2022/01/30 02:05:06;;;;;;;12.47;4.07;;;;;;;5.48;56.47;100232.50;6423714;27;34110;-76
2022/01/30 02:15:06;;;;;;;10.73;4.17;;;;;;;5.09;56.74;100212.44;6425540;27;44401;-78
2022/01/30 02:25:42;;;;;;;11.80;4.30;;;;;;;5.03;57.66;100201.28;6483911;27;34535;-77
2022/01/30 02:28:53;;;;;;;11.50;4.53;;;;;;;5.29;56.88;100191.19;6452108;27;33090;-76
2022/01/30 02:32:08;;;;;;;12.82;4.37;;;;;;;5.51;56.15;100177.69;6403561;27;34344;-79
2022/01/30 02:35:23;;;;;;;13.67;5.13;;;;;;;5.22;56.64;100175.72;6420395;27;34672;-78
2022/01/30 02:38:50;;;;;;;11.97;4.57;;;;;;;5.43;56.23;100160.47;6409060;27;34778;-76
2022/01/30 02:41:55;;;;;;;12.40;4.50;;;;;;;5.47;56.45;100147.34;6415112;27;34124;-76
2022/01/30 02:45:11;;;;;;;16.50;4.53;;;;;;;5.67;55.64;100145.19;6428912;27;34037;-75
2022/01/30 02:48:32;;;;;;;13.33;4.27;;;;;;;5.81;55.44;100137.03;6399831;27;36689;-76
2022/01/30 02:51:48;;;;;;;9.43;3.57;;;;;;;5.35;57.05;100133.72;6411485;27;43441;-78
2022/01/30 02:55:02;;;;;;;11.87;4.07;;;;;;;5.39;57.56;100144.94;6430208;27;33316;-78
2022/01/30 02:58:22;;;;;;;11.07;4.20;;;;;;;4.99;59.03;100144.91;6402056;27;45130;-75
2022/01/30 03:01:30;;;;;;;10.03;4.03;;;;;;;4.94;60.48;100150.19;6435961;27;34805;-78
2022/01/30 03:04:41;;;;;;;12.37;4.27;;;;;;;5.10;59.73;100156.84;6413807;27;45058;-78
2022/01/30 03:07:52;;;;;;;7.70;3.20;;;;;;;5.45;58.85;100136.97;6506045;27;34064;-77
2022/01/30 03:11:02;;;;;;;8.13;3.70;;;;;;;6.19;57.62;100142.22;6518486;26;35643;-79
2022/01/30 03:14:19;;;;;;;7.67;3.40;;;;;;;6.57;56.33;100147.31;6473946;26;43239;-77
2022/01/30 03:17:36;;;;;;;10.03;3.47;;;;;;;6.08;58.75;100130.31;6485670;27;33539;-78
2022/01/30 03:21:05;;;;;;;;;;;;;;;5.84;59.64;100123.91;6503635;27;34924;-77
2022/01/30 03:24:15;;;;;;;6.30;3.00;;;;;;;5.84;59.80;100122.16;6498036;26;43913;-77
2022/01/30 03:27:25;;;;;;;8.00;3.00;;;;;;;5.80;60.69;100115.31;6497374;27;33597;-78
2022/01/30 03:30:34;;;;;;;5.83;2.70;;;;;;;5.88;61.00;100109.91;6504540;26;33446;-77
2022/01/30 03:33:41;;;;;;;6.13;2.70;;;;;;;5.90;60.93;100108.13;6504236;26;43517;-79
2022/01/30 03:36:54;;;;;;;6.77;3.10;;;;;;;6.00;61.23;100100.97;6508824;27;34842;-76
2022/01/30 03:40:08;;;;;;;8.47;3.17;;;;;;;5.88;61.12;100104.69;6470553;27;32887;-78
2022/01/30 03:43:24;;;;;;;8.80;3.13;;;;;;;6.46;59.63;100079.75;6494627;26;33533;-76
2022/01/30 03:46:31;;;;;;;8.00;2.73;;;;;;;6.16;60.97;100074.44;6500683;27;33176;-76
2022/01/30 03:49:58;;;;;;;7.03;2.90;;;;;;;6.29;60.52;100058.44;6478226;27;33752;-75
2022/01/30 03:53:14;;;;;;;5.33;2.53;;;;;;;7.54;56.59;100055.66;6492842;27;44076;-79
2022/01/30 03:56:22;;;;;;;6.43;2.60;;;;;;;7.23;57.09;100070.56;6469412;27;35316;-79
2022/01/30 03:59:32;;;;;;;6.73;2.87;;;;;;;7.26;58.08;100057.37;6506774;27;34430;-77
2022/01/30 04:02:46;;;;;;;5.53;2.90;;;;;;;7.77;56.05;100051.41;6466636;27;43260;-76
2022/01/30 04:05:55;;;;;;;7.90;3.27;;;;;;;7.21;57.20;100033.16;6423042;27;33231;-78
2022/01/30 04:09:04;;;;;;;7.10;2.50;;;;;;;7.93;55.43;100034.31;6460890;27;33166;-76
2022/01/30 04:12:14;;;;;;;7.03;2.90;;;;;;;8.08;54.81;100018.06;6423061;27;43394;-78
2022/01/30 04:15:31;;;;;;;7.13;2.60;;;;;;;7.80;55.31;100001.62;6442032;27;34391;-76
2022/01/30 04:18:44;;;;;;;5.87;2.97;;;;;;;7.79;55.73;100031.28;6397822;27;43750;-76
2022/01/30 04:21:57;;;;;;;7.63;3.37;;;;;;;8.08;54.75;100020.69;6446324;27;33320;-78
2022/01/30 04:25:04;;;;;;;8.10;3.03;;;;;;;7.67;55.77;100016.87;6415753;27;33839;-76
2022/01/30 04:28:13;;;;;;;5.50;2.70;;;;;;;7.96;55.75;100013.25;6394173;27;44877;-76
2022/01/30 04:31:30;;;;;;;6.57;2.90;;;;;;;8.09;54.68;100017.16;6426840;27;33061;-79
2022/01/30 04:34:54;;;;;;;8.67;3.30;;;;;;;7.87;55.29;100019.66;6434776;27;43184;-78
2022/01/30 04:38:17;;;;;;;6.50;2.90;;;;;;;7.56;56.49;100006.75;6431340;27;43868;-76
2022/01/30 05:09:45;;;;;;;1.67;0.87;;;;;;;8.47;59.60;99980.94;6365981;27;35672;-76
2022/01/30 05:12:59;;;;;;;1.52;0.90;;;;;;;8.23;59.81;99955.59;6494587;27;35109;-76
2022/01/30 05:16:09;;;;;;;2.00;1.13;;;;;;;8.38;59.74;99970.81;6487651;27;43630;-78
2022/01/30 05:19:21;;;;;;;3.17;1.10;;;;;;;8.31;60.15;99971.91;6507511;26;34242;-78
2022/01/30 05:22:31;;;;;;;2.23;1.30;;;;;;;8.50;59.53;99978.22;6500248;27;33765;-76
2022/01/30 05:25:51;;;;;;;1.70;1.10;;;;;;;8.09;60.40;99980.50;6448334;27;43326;-77
2022/01/30 05:29:10;;;;;;;2.00;1.20;;;;;;;7.99;60.76;99978.28;6501698;26;33181;-77
2022/01/30 05:32:29;;;;;;;2.60;1.10;;;;;;;8.42;59.68;99982.84;6501304;27;35108;-78
2022/01/30 05:35:41;;;;;;;2.23;1.10;;;;;;;8.53;59.16;99967.59;6479761;27;44937;-76
2022/01/30 05:38:58;;;;;;;2.10;0.90;;;;;;;8.65;58.32;99993.34;6496545;26;34148;-78
2022/01/30 05:42:12;;;;;;;1.50;0.97;;;;;;;8.51;58.30;99993.00;6495369;27;43617;-75
2022/01/30 05:45:38;;;;;;;1.90;0.80;;;;;;;8.51;58.43;99981.69;6506476;27;34920;-79
2022/01/30 05:48:46;;;;;;;1.47;1.00;;;;;;;8.26;59.27;99985.16;6431065;26;43450;-77
2022/01/30 05:51:51;;;;;;;1.47;0.83;;;;;;;8.18;60.51;99989.81;6488367;27;33888;-77
2022/01/30 05:55:03;;;;;;;2.83;1.07;;;;;;;8.27;60.29;99999.97;6486893;27;33041;-76
2022/01/30 05:58:20;;;;;;;1.47;0.80;;;;;;;8.49;59.84;100000.06;6449111;26;37203;-77
2022/01/30 06:01:39;;;;;;;1.10;1.00;;;;;;;8.47;60.07;100004.50;6493097;27;32968;-77
2022/01/30 06:04:47;;;;;;;1.53;1.13;;;;;;;8.25;61.48;100000.94;6447940;27;34245;-78
2022/01/30 06:07:57;;;;;;;3.27;0.93;;;;;;;8.43;60.79;99996.81;6503933;27;35714;-79
2022/01/30 06:11:11;;;;;;;1.70;0.97;;;;;;;8.20;62.33;100008.09;6499169;27;34177;-76
2022/01/30 06:14:25;;;;;;;1.60;1.13;;;;;;;7.66;64.25;100003.81;6495839;26;33999;-77
2022/01/30 06:17:31;;;;;;;3.40;1.47;;;;;;;7.73;64.54;100023.63;6517290;27;33278;-79
2022/01/30 06:20:46;;;;;;;2.10;1.20;;;;;;;7.08;67.09;100022.22;6487208;27;44926;-78
2022/01/30 06:23:55;;;;;;;3.10;1.10;;;;;;;7.39;66.61;100013.41;6472387;26;35090;-77
2022/01/30 06:27:11;;;;;;;2.17;1.30;;;;;;;7.36;67.36;100030.06;6488825;27;34448;-76
2022/01/30 06:30:40;;;;;;;3.63;1.33;;;;;;;7.56;66.72;100032.03;6477055;27;36829;-76
2022/01/30 06:34:23;;;;;;;2.03;1.30;;;;;;;7.22;68.81;100056.66;6486602;26;34002;-78
2022/01/30 06:37:46;;;;;;;6.40;1.70;;;;;;;7.01;73.86;100058.13;6518393;27;43483;-76
2022/01/30 06:40:53;;;;;;;3.43;1.27;;;;;;;7.32;74.12;100038.91;6486317;27;34470;-76
2022/01/30 06:44:10;;;;;;;2.20;1.30;;;;;;;6.64;75.50;100047.91;6515892;26;33227;-79
2022/01/30 06:47:29;;;;;;;3.17;1.47;;;;;;;6.98;73.95;100039.94;6516047;27;35044;-77
2022/01/30 06:50:41;;;;;;;4.73;1.53;;;;;;;7.07;72.52;100057.09;6494072;27;43429;-76
2022/01/30 06:53:54;;;;;;;1.70;1.20;;;;;;;6.58;74.90;100061.13;6513621;26;33543;-77
2022/01/30 06:57:03;;;;;;;1.57;1.20;;;;;;;6.62;75.70;100060.13;6504159;27;34047;-76
2022/01/30 07:00:25;;;;;;;2.27;1.40;;;;;;;6.78;74.80;100050.13;6475043;27;35209;-75
2022/01/30 07:03:34;;;;;;;3.25;1.10;;;;;;;6.74;76.03;100062.41;6491910;26;34117;-78
2022/01/30 07:06:57;;;;;;;1.77;1.27;;;;;;;7.21;72.94;100054.06;6454260;27;34292;-76
2022/01/30 07:10:02;;;;;;;3.77;1.10;;;;;;;7.09;71.98;100057.06;6490612;27;34679;-76
2022/01/30 07:13:23;;;;;;;1.83;1.30;;;;;;;6.98;72.23;100039.94;6481605;27;45524;-80
2022/01/30 07:16:28;;;;;;;2.28;1.30;;;;;;;7.29;70.88;100036.41;6508205;27;34915;-78
2022/01/30 07:19:32;;;;;;;1.73;1.10;;;;;;;7.27;69.65;100027.72;6484988;27;35241;-75
2022/01/30 07:22:36;;;;;;;2.15;1.02;;;;;;;7.52;68.71;99994.66;6485141;27;44320;-79
2022/01/30 07:25:46;;;;;;;2.03;0.83;;;;;;;7.25;67.83;100000.78;6470964;27;34090;-79
2022/01/30 07:28:56;;;;;;;1.97;0.77;;;;;;;6.85;67.09;100001.16;6473819;26;34287;-79
2022/01/30 07:32:21;;;;;;;2.20;0.80;;;;;;;6.86;64.75;99988.06;6501070;27;33834;-79
2022/01/30 07:35:36;;;;;;;0.80;0.73;;;;;;;7.09;61.56;100004.81;6523567;26;35726;-79
2022/01/30 07:38:51;;;;;;;3.17;1.40;;;;;;;7.30;60.27;100015.44;6490565;26;44789;-79
2022/01/30 07:42:00;;;;;;;3.30;0.70;;;;;;;7.19;59.54;100014.91;6503977;27;34697;-76
2022/01/30 07:45:20;;;;;;;2.67;0.60;;;;;;;7.11;59.62;100016.06;6474114;27;43230;-77
2022/01/30 07:48:30;;;;;;;2.67;0.73;;;;;;;7.20;58.63;100015.75;6492864;26;33085;-78
2022/01/30 07:51:47;;;;;;;1.63;0.60;;;;;;;7.17;58.31;100032.41;6512649;27;43047;-78
2022/01/30 07:54:55;;;;;;;1.07;0.80;;;;;;;7.21;57.58;100020.97;6475147;26;33981;-78
2022/01/30 07:58:13;;;;;;;2.58;0.70;;;;;;;7.68;56.33;100007.25;6488508;27;34749;-77
2022/01/30 08:01:23;;;;;;;2.30;0.90;;;;;;;7.31;56.18;100035.44;6496515;27;35021;-76
2022/01/30 08:04:34;;;;;;;3.13;1.00;;;;;;;7.63;55.28;100051.00;6511517;26;32696;-80
2022/01/30 08:07:40;;;;;;;4.83;0.90;;;;;;;7.68;54.00;100042.12;6488421;27;43576;-80
2022/01/30 08:10:45;;;;;;;2.83;0.67;;;;;;;7.53;52.54;100053.06;6500700;27;36054;-78
2022/01/30 08:13:53;;;;;;;0.80;0.50;;;;;;;7.85;50.97;100086.03;6480117;26;34222;-78
2022/01/30 08:17:02;;;;;;;2.20;0.67;;;;;;;7.79;50.19;100076.62;6475005;27;35654;-77
2022/01/30 08:20:15;;;;;;;2.93;1.03;;;;;;;7.74;49.67;100088.16;6486078;27;44403;-77
2022/01/30 08:23:33;;;;;;;1.60;0.50;;;;;;;7.88;49.36;100112.97;6494043;26;33220;-78
2022/01/30 08:26:44;;;;;;;2.37;0.60;;;;;;;8.02;48.94;100106.41;6499985;27;44848;-77
2022/01/30 08:30:03;;;;;;;4.30;1.00;;;;;;;8.25;48.67;100111.75;6483553;27;32485;-78
2022/01/30 08:33:25;;;;;;;2.57;0.73;;;;;;;7.99;49.70;100103.91;6493906;26;34397;-80
2022/01/30 08:36:35;;;;;;;2.73;1.10;;;;;;;8.01;50.54;100102.09;6481113;27;34278;-79
2022/01/30 08:39:51;;;;;;;5.60;0.80;;;;;;;8.44;50.32;100106.78;6502477;27;44486;-78
2022/01/30 08:43:00;;;;;;;1.63;0.70;;;;;;;7.95;51.88;100092.69;6445175;27;35062;-77
2022/01/30 08:46:17;;;;;;;6.33;1.30;;;;;;;7.77;52.41;100096.75;6441693;27;43232;-77
2022/01/30 08:49:30;;;;;;;2.77;0.83;;;;;;;8.01;51.96;100107.31;6439628;27;35728;-79
2022/01/30 08:52:49;;;;;;;2.33;1.07;;;;;;;8.04;50.99;100121.16;6436167;27;43756;-79
2022/01/30 08:56:01;;;;;;;5.60;0.93;;;;;;;8.25;51.01;100129.22;6464624;27;33739;-80
2022/01/30 08:59:25;;;;;;;2.70;0.80;;;;;;;8.53;50.40;100079.38;6436832;27;34323;-76
2022/01/30 09:02:49;;;;;;;2.73;0.90;;;;;;;8.37;49.31;100100.00;6435478;27;43407;-77
2022/01/30 09:06:01;;;;;;;5.77;1.30;;;;;;;8.70;48.45;100118.94;6446582;27;43207;-80
2022/01/30 09:09:21;;;;;;;6.63;1.30;;;;;;;8.23;48.92;100102.22;6430748;27;34406;-80
2022/01/30 09:12:34;;;;;;;2.67;0.90;;;;;;;8.56;48.56;100114.16;6438316;27;33546;-78
2022/01/30 09:15:43;;;;;;;4.17;0.93;;;;;;;8.27;47.90;100130.88;6424128;27;43389;-77
2022/01/30 09:19:02;;;;;;;2.30;1.17;;;;;;;8.54;46.83;100138.72;6443876;27;34213;-77
2022/01/30 09:22:12;;;;;;;1.27;0.70;;;;;;;8.51;46.38;100144.94;6375286;27;43351;-79
2022/01/30 09:25:22;;;;;;;3.00;1.00;;;;;;;8.43;46.27;100110.28;6355716;27;33755;-78
2022/01/30 09:28:34;;;;;;;3.23;1.17;;;;;;;8.76;46.50;100110.00;6340267;27;33727;-77
2022/01/30 09:31:42;;;;;;;1.67;1.00;;;;;;;8.54;44.85;100105.53;6360589;27;34290;-77
2022/01/30 09:34:59;;;;;;;9.40;1.20;;;;;;;8.61;44.67;100083.44;6328417;27;34743;-78
2022/01/30 09:38:23;;;;;;;2.23;0.70;;;;;;;8.56;44.35;100063.53;6316773;27;45304;-79
2022/01/30 09:41:35;;;;;;;1.23;0.63;;;;;;;8.57;42.96;100065.28;6363736;27;34326;-80
2022/01/30 09:44:49;;;;;;;4.87;0.80;;;;;;;8.76;41.38;100053.22;6334848;27;34628;-79
2022/01/30 09:48:14;;;;;;;3.33;0.80;;;;;;;8.71;41.48;100083.97;6346539;27;34193;-79
2022/01/30 09:51:34;;;;;;;2.20;0.90;;;;;;;9.05;42.15;100083.56;6356587;27;34531;-78
2022/01/30 09:54:42;;;;;;;4.60;1.43;;;;;;;9.33;41.72;100098.25;6360481;27;44824;-79
2022/01/30 09:57:48;;;;;;;3.90;0.82;;;;;;;8.36;42.81;100061.63;6318761;27;33443;-78
2022/01/30 10:00:53;;;;;;;4.23;1.13;;;;;;;8.30;43.39;100088.00;6373881;27;35738;-79
2022/01/30 10:03:59;;;;;;;5.43;1.40;;;;;;;8.50;42.69;100071.63;6399606;27;33606;-79
2022/01/30 10:07:13;;;;;;;3.27;1.00;;;;;;;8.48;42.32;100070.84;6372719;27;45111;-80
2022/01/30 10:10:26;;;;;;;2.73;0.80;;;;;;;8.38;42.92;100101.75;6410298;27;33456;-79
2022/01/30 10:13:31;;;;;;;5.70;1.20;;;;;;;8.36;42.89;100098.31;6398970;27;34485;-79
2022/01/30 10:16:46;;;;;;;3.93;0.90;;;;;;;8.54;42.87;100123.84;6388637;27;43444;-80
2022/01/30 10:19:58;;;;;;;6.27;1.10;;;;;;;8.50;43.36;100148.47;6406337;27;33243;-78
2022/01/30 10:23:09;;;;;;;3.53;0.73;;;;;;;7.62;44.79;100135.63;6415789;27;34726;-79
2022/01/30 10:26:18;;;;;;;2.97;0.70;;;;;;;7.39;44.97;100134.53;6362330;27;33649;-80
2022/01/30 10:29:31;;;;;;;1.43;0.47;;;;;;;7.76;44.05;100149.13;6392801;27;33461;-78
2022/01/30 10:32:36;;;;;;;5.83;0.90;;;;;;;8.00;43.36;100137.03;6449766;27;44660;-79
2022/01/30 10:35:56;;;;;;;5.67;1.03;;;;;;;8.48;42.30;100131.94;6512400;27;34135;-77
2022/01/30 10:39:13;;;;;;;1.97;0.50;;;;;;;8.57;41.65;100104.56;6512569;26;34114;-77
2022/01/30 10:42:39;;;;;;;2.77;0.73;;;;;;;10.63;37.52;100112.19;6499136;27;34778;-81
2022/01/30 10:45:44;;;;;;;1.83;0.60;;;;;;;10.41;37.19;100106.13;6479419;27;34318;-79
2022/01/30 10:49:06;;;;;;;3.92;1.02;;;;;;;10.69;36.57;100121.56;6492670;26;34660;-79
2022/01/30 10:52:17;;;;;;;4.60;1.10;;;;;;;10.50;37.32;100116.28;6501998;27;36462;-79
2022/01/30 10:55:34;;;;;;;2.40;0.70;;;;;;;9.73;39.08;100105.44;6514223;26;35118;-78
2022/01/30 10:59:06;;;;;;;2.27;0.80;;;;;;;9.07;40.82;100128.94;6494493;26;45245;-78
2022/01/30 11:02:16;;;;;;;6.72;2.05;;;;;;;9.43;39.88;100091.75;6438300;27;1888546;-79
2022/01/30 11:05:22;;;;;;;3.17;0.83;;;;;;;9.05;41.51;100101.94;6505975;27;33347;-77
2022/01/30 11:08:36;;;;;;;5.07;1.43;;;;;;;10.21;38.99;100091.19;6504368;26;34384;-80
2022/01/30 11:11:46;;;;;;;6.17;0.77;;;;;;;9.49;39.83;100096.75;6482880;27;43441;-78
2022/01/30 11:15:04;;;;;;;5.23;1.00;;;;;;;8.92;40.17;100091.03;6477475;27;35377;-79
2022/01/30 11:18:08;;;;;;;4.73;0.87;;;;;;;8.49;40.48;100060.28;6478643;27;44733;-77
2022/01/30 11:21:14;;;;;;;3.57;1.00;;;;;;;9.00;39.70;100053.19;6465939;27;34126;-80
2022/01/30 11:24:19;;;;;;;3.90;1.10;;;;;;;8.96;39.06;100086.56;6450363;27;34281;-79
2022/01/30 11:27:24;;;;;;;2.13;0.93;;;;;;;8.31;40.85;100067.03;6431442;27;33972;-80
2022/01/30 11:30:32;;;;;;;5.50;1.57;;;;;;;8.77;40.49;100073.28;6475245;27;33944;-79
2022/01/30 11:33:37;;;;;;;4.37;1.80;;;;;;;9.19;39.24;100076.03;6481619;27;43678;-79
2022/01/30 11:36:48;;;;;;;3.70;1.00;;;;;;;8.47;41.51;100096.16;6461158;27;34321;-80
2022/01/30 11:39:52;;;;;;;5.20;1.00;;;;;;;8.44;41.51;100080.59;6462028;27;33707;-79
2022/01/30 11:43:08;;;;;;;6.53;3.50;;;;;;;8.60;40.35;100117.56;6447260;27;37062;-80
2022/01/30 11:46:16;;;;;;;6.73;1.10;;;;;;;9.19;40.53;100110.12;6482493;27;44078;-79
2022/01/30 11:49:44;;;;;;;2.60;0.90;;;;;;;9.72;39.25;100091.47;6436035;27;33942;-79
2022/01/30 11:52:59;;;;;;;6.07;1.20;;;;;;;9.11;39.93;100100.84;6470917;27;35161;-80
2022/01/30 11:56:11;;;;;;;3.07;0.77;;;;;;;9.15;39.89;100105.94;6469393;27;43425;-77
2022/01/30 11:59:41;;;;;;;3.23;1.10;;;;;;;8.82;40.38;100084.44;6484023;27;33844;-77
2022/01/30 12:02:50;;;;;;;4.67;1.10;;;;;;;8.28;43.00;100068.88;6448515;27;34197;-77
2022/01/30 12:06:22;;;;;;;5.40;1.27;;;;;;;8.06;43.33;100101.03;6433273;27;35550;-78
2022/01/30 12:09:37;;;;;;;3.40;1.00;;;;;;;8.58;40.88;100106.28;6455859;27;33954;-78
2022/01/30 12:12:54;;;;;;;5.30;0.90;;;;;;;8.69;40.95;100127.69;6439626;27;33389;-78
2022/01/30 12:16:07;;;;;;;5.00;1.27;;;;;;;8.97;39.83;100111.84;6500329;27;44120;-78
2022/01/30 12:19:16;;;;;;;5.07;1.37;;;;;;;8.88;39.49;100072.84;6510790;26;34868;-77
2022/01/30 12:22:28;;;;;;;4.80;1.17;;;;;;;9.40;38.54;100108.47;6492540;27;35334;-78
2022/01/30 12:25:43;;;;;;;6.17;1.20;;;;;;;8.78;39.41;100098.56;6481510;26;34873;-77
2022/01/30 12:28:53;;;;;;;9.20;1.60;;;;;;;9.43;38.79;100146.84;6488015;26;35664;-76
2022/01/30 12:32:23;;;;;;;4.17;1.23;;;;;;;9.68;37.32;100112.63;6512825;27;34575;-78
2022/01/30 12:35:46;;;;;;;2.37;0.63;;;;;;;9.61;37.90;100104.16;6442696;27;35781;-77
2022/01/30 12:39:03;;;;;;;3.60;1.13;;;;;;;9.77;38.20;100110.47;6460700;27;34229;-77
2022/01/30 12:42:18;;;;;;;4.43;1.60;;;;;;;9.29;38.61;100105.41;6442077;27;43499;-80
2022/01/30 12:45:34;;;;;;;5.70;1.00;;;;;;;8.91;39.34;100127.81;6436379;27;34392;-76
2022/01/30 12:49:13;;;;;;;8.47;1.67;;;;;;;9.08;39.66;100090.47;6453019;27;43349;-79
2022/01/30 12:52:36;;;;;;;5.60;0.77;;;;;;;8.94;39.58;100094.44;6439169;27;33925;-77
2022/01/30 12:55:50;;;;;;;3.83;1.10;;;;;;;8.80;38.91;100101.97;6467308;27;33624;-78
2022/01/30 12:59:06;;;;;;;4.80;1.10;;;;;;;8.14;40.53;100109.47;6428384;27;34925;-79
2022/01/30 13:02:24;;;;;;;7.60;1.20;;;;;;;8.63;40.12;100091.22;6455504;27;36223;-79
2022/01/30 13:05:44;;;;;;;2.70;0.93;;;;;;;8.72;39.77;100098.78;6468467;27;43182;-77
2022/01/30 13:08:56;;;;;;;5.13;1.10;;;;;;;8.49;39.69;100098.72;6497828;26;35960;-76
2022/01/30 13:12:23;;;;;;;3.40;0.90;;;;;;;8.58;39.60;100115.00;6495097;27;33133;-79
2022/01/30 13:15:46;;;;;;;8.33;1.13;;;;;;;7.97;42.10;100137.97;6511825;27;34445;-76
2022/01/30 13:19:42;;;;;;;3.90;1.02;;;;;;;7.71;42.58;100125.72;6436032;27;34745;-79
2022/01/30 13:22:56;;;;;;;4.17;1.67;;;;;;;8.17;43.00;100175.72;6442307;27;34254;-80
2022/01/30 13:26:28;;;;;;;6.50;1.57;;;;;;;7.30;47.95;100161.81;6383118;27;45014;-77
2022/01/30 13:29:33;;;;;;;;;;;;;;;6.96;49.57;100182.84;6386819;27;35163;-76
2022/01/30 13:32:46;;;;;;;4.57;1.40;;;;;;;7.27;49.46;100182.81;6411357;27;43362;-79
2022/01/30 13:35:51;;;;;;;6.43;1.10;;;;;;;7.11;48.34;100175.47;6428099;27;34637;-79
2022/01/30 13:39:07;;;;;;;4.73;1.03;;;;;;;7.54;47.87;100172.47;6417377;27;34261;-77
2022/01/30 13:42:54;;;;;;;5.23;1.07;;;;;;;6.97;49.71;100210.69;6404989;27;34979;-77
2022/01/30 13:49:52;;;;;;;5.47;1.37;;;;;;;7.46;50.57;100177.91;6402971;27;43314;-78
2022/01/30 13:53:10;;;;;;;6.20;1.30;;;;;;;7.05;49.91;100166.91;6420297;27;33213;-79
2022/01/30 13:56:17;;;;;;;7.27;1.27;;;;;;;7.17;49.55;100168.31;6390757;27;43661;-78
2022/01/30 13:59:29;;;;;;;7.30;1.60;;;;;;;7.55;47.76;100175.03;6394709;27;35201;-79
2022/01/30 14:02:52;;;;;;;2.17;1.10;;;;;;;7.46;47.25;100174.44;6445147;27;34260;-80
2022/01/30 14:05:59;;;;;;;5.10;1.27;;;;;;;7.69;46.26;100172.00;6445919;27;35101;-77
2022/01/30 14:09:24;;;;;;;5.30;1.57;;;;;;;7.77;46.77;100171.75;6434174;27;33262;-77
2022/01/30 14:12:45;;;;;;;5.23;1.70;;;;;;;7.69;46.20;100174.62;6410838;27;35312;-79
2022/01/30 14:16:07;;;;;;;7.12;1.85;;;;;;;7.42;46.91;100173.69;6418134;27;33537;-78
2022/01/30 14:19:25;;;;;;;4.47;1.17;;;;;;;7.73;47.00;100164.91;6422932;27;33440;-78
2022/01/30 14:22:46;;;;;;;1.77;0.90;;;;;;;7.83;46.05;100166.34;6458455;27;34005;-76
2022/01/30 14:25:57;;;;;;;6.80;1.50;;;;;;;7.42;46.63;100150.16;6457029;27;35423;-76
2022/01/30 14:29:20;;;;;;;3.97;1.00;;;;;;;7.33;45.43;100161.72;6510299;26;42831;-77
2022/01/30 14:32:48;;;;;;;3.07;1.10;;;;;;;7.32;45.89;100159.16;6490975;27;34159;-79
2022/01/30 14:35:59;;;;;;;6.87;1.20;;;;;;;7.04;45.97;100174.78;6479870;27;34694;-79
2022/01/30 14:39:11;;;;;;;5.37;1.23;;;;;;;7.34;44.16;100180.88;6499207;26;43359;-76
2022/01/30 14:42:17;;;;;;;2.17;0.90;;;;;;;7.07;44.55;100172.94;6485950;27;33616;-78
2022/01/30 14:45:27;;;;;;;6.83;1.33;;;;;;;7.16;44.58;100174.44;6469238;27;33851;-79
2022/01/30 14:48:41;;;;;;;4.73;1.87;;;;;;;7.28;44.35;100170.62;6483906;26;34355;-79
2022/01/30 14:51:51;;;;;;;4.77;1.13;;;;;;;6.98;45.40;100165.38;6436019;27;34585;-77
2022/01/30 14:55:03;;;;;;;3.97;1.13;;;;;;;7.04;45.11;100173.03;6421803;27;34191;-79
2022/01/30 14:58:33;;;;;;;3.80;1.13;;;;;;;7.62;43.36;100148.69;6412231;27;34321;-79
2022/01/30 15:01:42;;;;;;;9.37;1.30;;;;;;;7.23;43.84;100169.91;6400097;27;44698;-80
2022/01/30 15:05:08;;;;;;;2.40;0.90;;;;;;;7.28;44.07;100158.41;6435489;27;33695;-77
2022/01/30 15:08:17;;;;;;;6.87;1.30;;;;;;;7.17;43.72;100157.00;6396627;27;44330;-78
2022/01/30 15:11:26;;;;;;;8.88;1.92;;;;;;;7.10;42.85;100137.19;6420006;27;35238;-78
2022/01/30 15:14:41;;;;;;;4.80;1.00;;;;;;;7.36;41.97;100150.34;6407373;27;33476;-78
2022/01/30 15:17:48;;;;;;;5.20;1.20;;;;;;;7.10;42.79;100142.41;6417850;27;33465;-76
2022/01/30 15:20:55;;;;;;;2.10;1.40;;;;;;;7.22;42.15;100152.50;6394030;27;35132;-77
2022/01/30 15:24:06;;;;;;;3.50;1.00;;;;;;;7.11;41.85;100134.50;6393836;27;33335;-77
2022/01/30 15:27:20;;;;;;;2.63;0.80;;;;;;;7.30;41.13;100166.19;6405461;27;33224;-78
2022/01/30 15:30:51;;;;;;;8.40;1.00;;;;;;;7.13;41.07;100130.09;6396102;27;34652;-78
2022/01/30 15:34:04;;;;;;;7.53;1.67;;;;;;;6.97;41.39;100144.50;6419178;27;34770;-79
2022/01/30 15:37:18;;;;;;;5.37;1.30;;;;;;;6.99;41.15;100117.41;6389292;27;43501;-76
2022/01/30 15:40:35;;;;;;;4.47;0.90;;;;;;;6.96;41.36;100138.44;6409586;27;33457;-79
2022/01/30 15:44:06;;;;;;;2.73;1.13;;;;;;;6.99;41.25;100120.03;6425929;27;35338;-77
2022/01/30 15:50:46;;;;;;;4.97;1.10;;;;;;;7.18;41.26;100119.50;6423691;27;43363;-77
2022/01/30 15:53:55;;;;;;;3.20;1.20;;;;;;;7.07;41.37;100125.88;6436911;27;33337;-78
2022/01/30 15:57:03;;;;;;;4.03;1.03;;;;;;;6.79;41.40;100127.59;6500556;27;33623;-80
2022/01/30 16:00:18;;;;;;;1.90;0.70;;;;;;;7.01;40.66;100125.22;6499773;27;34562;-79
2022/01/30 16:03:25;;;;;;;4.93;1.33;;;;;;;6.88;40.46;100158.66;6495899;26;34272;-78
2022/01/30 16:06:35;;;;;;;5.60;1.43;;;;;;;6.86;40.78;100134.34;6489246;27;34227;-76
2022/01/30 16:09:39;;;;;;;3.63;1.30;;;;;;;6.94;40.65;100141.97;6505953;27;44840;-77
2022/01/30 16:16:09;;;;;;;3.73;1.13;;;;;;;6.85;41.06;100142.22;6515336;27;43815;-79
2022/01/30 16:19:15;;;;;;;5.20;1.20;;;;;;;7.10;40.38;100153.72;6493185;26;34237;-80
2022/01/30 16:22:19;;;;;;;4.53;1.33;;;;;;;7.26;39.97;100160.19;6475865;27;35655;-76
2022/01/30 16:25:26;;;;;;;5.43;1.17;;;;;;;6.84;40.53;100162.28;6474783;27;34614;-78